Asahimaru No.8 — JD3733 — position and weather

sailwx.info

Track history (hours):
 
Tides and Currents Weather Stations Pressure Air Temp Water Temp Dewpoint Dewpoint Depression Visibility Wind Speed Wind Dir Waves Ship Positions

Asahimaru No.8

Last reported at 2017-Nov-23 15:16 UTC. Time now 2017-Nov-24 16:32 UTC.
Position N 34°36' E 135°01'.

Length 49 m.

Type: Tanker. MMSI: 431005645.

Date/timePositionNaut miles runAvg speedWind from/ knotsBaromVisibWave heightAir tempDewpointWater temp
2017-Nov-23 15:16N 34°36' E 135°01'310.5
2017-Nov-23 15:00N 34°33' E 135°01'0 0.0
2017-Nov-23 01:59N 34°33' E 135°01'510.6
2017-Nov-23 01:30N 34°34' E 135°07'611.5
2017-Nov-23 00:59N 34°37' E 135°14'511.3
2017-Nov-23 00:30N 34°39' E 135°20'4 2.7
2017-Nov-22 23:04N 34°41' E 135°24'0 0.0
2017-Nov-22 22:58N 34°41' E 135°24'0 0.1
2017-Nov-22 22:29N 34°41' E 135°24'5 8.8
2017-Nov-22 21:53N 34°39' E 135°18'410.5
2017-Nov-22 21:30N 34°37' E 135°14'610.7
2017-Nov-22 20:55N 34°35' E 135°07'511.5
2017-Nov-22 20:30N 34°33' E 135°01'  
2017-Nov-19 16:28N 34°37' E 135°00'4 7.4
2017-Nov-19 15:57N 34°33' E 135°01'1 1.2
2017-Nov-19 15:21N 34°33' E 134°60'0 0.0
2017-Nov-19 14:51N 34°33' E 134°60'0 0.0
2017-Nov-19 14:27N 34°33' E 134°60'0 0.0
2017-Nov-19 13:33N 34°33' E 134°60'0 0.0
2017-Nov-19 13:27N 34°33' E 134°60'0 0.0
2017-Nov-19 12:57N 34°33' E 134°60'0 0.0
2017-Nov-19 12:09N 34°33' E 134°60'0 0.0
2017-Nov-19 11:57N 34°33' E 134°60'0 0.0
2017-Nov-19 11:27N 34°33' E 134°60'0 0.0
2017-Nov-19 10:57N 34°33' E 134°60'0 0.0
2017-Nov-19 10:09N 34°33' E 134°60'0 0.0
2017-Nov-19 09:51N 34°33' E 134°60'0 0.0
2017-Nov-19 09:21N 34°33' E 134°60'0 0.0
2017-Nov-19 06:57N 34°33' E 134°60'0 0.0
2017-Nov-19 06:21N 34°33' E 134°60'0 0.0
2017-Nov-19 05:51N 34°33' E 134°60'0 0.0
2017-Nov-19 05:27N 34°33' E 134°60'0 0.0
2017-Nov-19 04:51N 34°33' E 134°60'0 0.0
2017-Nov-19 04:27N 34°33' E 134°60'0 0.0
2017-Nov-19 03:57N 34°33' E 134°60'0 0.0
2017-Nov-19 03:27N 34°33' E 134°60'0 0.0
2017-Nov-19 02:38N 34°33' E 134°60'0 1.5
2017-Nov-19 02:19N 34°33' E 135°00'4 9.9
2017-Nov-19 01:55N 34°34' E 135°05'510.9
2017-Nov-19 01:30N 34°36' E 135°10'611.0
2017-Nov-19 00:57N 34°38' E 135°17'510.7
2017-Nov-19 00:29N 34°40' E 135°22'2 0.9
2017-Nov-18 22:27N 34°41' E 135°24'2 5.0
2017-Nov-18 21:59N 34°40' E 135°22'0 0.0
2017-Nov-18 21:25N 34°40' E 135°22'0 0.0
2017-Nov-18 20:55N 34°40' E 135°22'0 0.1
2017-Nov-18 20:19N 34°40' E 135°22'0 0.0
2017-Nov-18 19:55N 34°40' E 135°22'0 0.0
2017-Nov-18 19:25N 34°40' E 135°22'0 0.0
2017-Nov-18 17:55N 34°40' E 135°22'0 0.1
2017-Nov-18 17:25N 34°40' E 135°22'0 0.0
2017-Nov-18 16:55N 34°40' E 135°22'0 0.0
2017-Nov-18 16:19N 34°40' E 135°22'0 0.0
2017-Nov-18 15:49N 34°40' E 135°22'0 0.0
2017-Nov-18 15:25N 34°40' E 135°22'0 0.0
2017-Nov-18 13:31N 34°40' E 135°22'0 0.0
2017-Nov-18 13:19N 34°40' E 135°22'0 0.0
2017-Nov-18 12:54N 34°40' E 135°22'3 7.7
2017-Nov-18 12:30N 34°38' E 135°18'5 9.7
2017-Nov-18 11:59N 34°37' E 135°13'5 9.8
2017-Nov-18 11:30N 34°36' E 135°07'  
Track history (hours):
 
Tides and Currents Weather Stations Pressure Air Temp Water Temp Dewpoint Dewpoint Depression Visibility Wind Speed Wind Dir Waves Ship Positions

Asahimaru No.8

Last reported at 2017-Nov-23 15:16 UTC. Time now 2017-Nov-24 16:32 UTC.
Position N 34°36' E 135°01'.

Length 49 m.

Type: Tanker. MMSI: 431005645.

Date/timePositionNaut miles runAvg speedWind from/ knotsBaromVisibWave heightAir tempDewpointWater temp
2017-Nov-23 15:16N 34°36' E 135°01'310.5
2017-Nov-23 15:00N 34°33' E 135°01'0 0.0
2017-Nov-23 01:59N 34°33' E 135°01'510.6
2017-Nov-23 01:30N 34°34' E 135°07'611.5
2017-Nov-23 00:59N 34°37' E 135°14'511.3
2017-Nov-23 00:30N 34°39' E 135°20'4 2.7
2017-Nov-22 23:04N 34°41' E 135°24'0 0.0
2017-Nov-22 22:58N 34°41' E 135°24'0 0.1
2017-Nov-22 22:29N 34°41' E 135°24'5 8.8
2017-Nov-22 21:53N 34°39' E 135°18'410.5
2017-Nov-22 21:30N 34°37' E 135°14'610.7
2017-Nov-22 20:55N 34°35' E 135°07'511.5
2017-Nov-22 20:30N 34°33' E 135°01'  
2017-Nov-19 16:28N 34°37' E 135°00'4 7.4
2017-Nov-19 15:57N 34°33' E 135°01'1 1.2
2017-Nov-19 15:21N 34°33' E 134°60'0 0.0
2017-Nov-19 14:51N 34°33' E 134°60'0 0.0
2017-Nov-19 14:27N 34°33' E 134°60'0 0.0
2017-Nov-19 13:33N 34°33' E 134°60'0 0.0
2017-Nov-19 13:27N 34°33' E 134°60'0 0.0
2017-Nov-19 12:57N 34°33' E 134°60'0 0.0
2017-Nov-19 12:09N 34°33' E 134°60'0 0.0
2017-Nov-19 11:57N 34°33' E 134°60'0 0.0
2017-Nov-19 11:27N 34°33' E 134°60'0 0.0
2017-Nov-19 10:57N 34°33' E 134°60'0 0.0
2017-Nov-19 10:09N 34°33' E 134°60'0 0.0
2017-Nov-19 09:51N 34°33' E 134°60'0 0.0
2017-Nov-19 09:21N 34°33' E 134°60'0 0.0
2017-Nov-19 06:57N 34°33' E 134°60'0 0.0
2017-Nov-19 06:21N 34°33' E 134°60'0 0.0
2017-Nov-19 05:51N 34°33' E 134°60'0 0.0
2017-Nov-19 05:27N 34°33' E 134°60'0 0.0
2017-Nov-19 04:51N 34°33' E 134°60'0 0.0
2017-Nov-19 04:27N 34°33' E 134°60'0 0.0
2017-Nov-19 03:57N 34°33' E 134°60'0 0.0
2017-Nov-19 03:27N 34°33' E 134°60'0 0.0
2017-Nov-19 02:38N 34°33' E 134°60'0 1.5
2017-Nov-19 02:19N 34°33' E 135°00'4 9.9
2017-Nov-19 01:55N 34°34' E 135°05'510.9
2017-Nov-19 01:30N 34°36' E 135°10'611.0
2017-Nov-19 00:57N 34°38' E 135°17'510.7
2017-Nov-19 00:29N 34°40' E 135°22'2 0.9
2017-Nov-18 22:27N 34°41' E 135°24'2 5.0
2017-Nov-18 21:59N 34°40' E 135°22'0 0.0
2017-Nov-18 21:25N 34°40' E 135°22'0 0.0
2017-Nov-18 20:55N 34°40' E 135°22'0 0.1
2017-Nov-18 20:19N 34°40' E 135°22'0 0.0
2017-Nov-18 19:55N 34°40' E 135°22'0 0.0
2017-Nov-18 19:25N 34°40' E 135°22'0 0.0
2017-Nov-18 17:55N 34°40' E 135°22'0 0.1
2017-Nov-18 17:25N 34°40' E 135°22'0 0.0
2017-Nov-18 16:55N 34°40' E 135°22'0 0.0
2017-Nov-18 16:19N 34°40' E 135°22'0 0.0
2017-Nov-18 15:49N 34°40' E 135°22'0 0.0
2017-Nov-18 15:25N 34°40' E 135°22'0 0.0
2017-Nov-18 13:31N 34°40' E 135°22'0 0.0
2017-Nov-18 13:19N 34°40' E 135°22'0 0.0
2017-Nov-18 12:54N 34°40' E 135°22'3 7.7
2017-Nov-18 12:30N 34°38' E 135°18'5 9.7
2017-Nov-18 11:59N 34°37' E 135°13'5 9.8
2017-Nov-18 11:30N 34°36' E 135°07'  

Dump ship's entire track history